createdAt,value
2024-01-09T00:04:01.929Z,9.80
2024-01-09T00:08:05.484Z,9.77
2024-01-09T00:12:10.891Z,10.10
2024-01-09T00:16:13.904Z,10.83
2024-01-09T00:20:17.774Z,10.20
2024-01-09T00:24:20.927Z,9.27
2024-01-09T00:28:25.829Z,9.80
2024-01-09T00:32:29.062Z,10.03
2024-01-09T00:36:32.561Z,9.53
2024-01-09T00:40:35.585Z,10.27
2024-01-09T00:44:43.342Z,8.93
2024-01-09T00:48:47.010Z,10.00
2024-01-09T00:52:50.467Z,9.40
2024-01-09T00:56:53.593Z,10.07
2024-01-09T01:00:58.472Z,9.50
2024-01-09T01:05:01.620Z,10.17
2024-01-09T01:09:05.283Z,9.60
2024-01-09T01:13:08.334Z,9.43
2024-01-09T01:17:13.151Z,9.63
2024-01-09T01:21:16.822Z,9.80
2024-01-09T01:25:20.507Z,9.27
2024-01-09T01:29:23.939Z,9.57
2024-01-09T01:33:29.022Z,9.87
2024-01-09T01:37:32.945Z,9.50
2024-01-09T01:41:36.550Z,9.57
2024-01-09T01:45:39.672Z,9.37
2024-01-09T01:49:46.794Z,9.30
2024-01-09T01:53:50.215Z,8.60
2024-01-09T01:57:56.462Z,9.30
2024-01-09T02:02:00.290Z,9.63
2024-01-09T02:06:05.957Z,8.63
2024-01-09T02:10:09.629Z,9.03
2024-01-09T02:14:13.605Z,9.53
2024-01-09T02:18:16.867Z,10.03
2024-01-09T02:22:21.622Z,9.20
2024-01-09T02:26:45.883Z,10.10
2024-01-09T02:30:57.630Z,10.37
2024-01-09T02:35:01.705Z,9.67
2024-01-09T02:39:05.399Z,9.90
2024-01-09T02:43:09.413Z,9.17
2024-01-09T02:47:14.237Z,9.70
2024-01-09T02:51:17.671Z,9.00
2024-01-09T02:55:21.108Z,9.00
2024-01-09T02:59:25.231Z,8.73
2024-01-09T03:03:30.290Z,8.83
2024-01-09T03:07:33.778Z,8.73
2024-01-09T03:11:37.560Z,8.20
2024-01-09T03:15:40.645Z,9.43
2024-01-09T03:19:45.548Z,8.83
2024-01-09T03:23:48.714Z,8.40
2024-01-09T03:27:54.358Z,9.40
2024-01-09T03:31:57.413Z,9.53
2024-01-09T03:36:07.208Z,9.27
2024-01-09T03:40:11.585Z,9.33
2024-01-09T03:44:15.123Z,9.13
2024-01-09T03:48:18.347Z,9.83
2024-01-09T03:52:23.702Z,9.17
2024-01-09T03:56:26.835Z,9.33
2024-01-09T04:00:30.554Z,9.67
2024-01-09T04:04:33.606Z,9.00
2024-01-09T04:08:38.461Z,9.50
2024-01-09T04:12:41.515Z,8.87
2024-01-09T04:16:49.048Z,8.43
2024-01-09T04:20:52.346Z,9.23
2024-01-09T04:24:57.097Z,9.17
2024-01-09T04:29:00.115Z,10.37
2024-01-09T04:33:03.627Z,9.03
2024-01-09T04:37:06.732Z,9.27
2024-01-09T04:41:18.140Z,9.60
2024-01-09T04:45:21.377Z,9.10
2024-01-09T04:49:25.579Z,8.57
2024-01-09T04:53:29.095Z,8.97
2024-01-09T04:57:33.962Z,9.00
2024-01-09T05:01:37.081Z,9.03
2024-01-09T05:05:40.469Z,9.50
2024-01-09T05:09:43.743Z,9.53
2024-01-09T05:13:48.546Z,9.00
2024-01-09T05:17:51.763Z,9.53
2024-01-09T05:21:55.275Z,9.60
2024-01-09T05:26:04.913Z,8.93
2024-01-09T05:30:12.256Z,9.43
2024-01-09T05:34:15.527Z,9.40
2024-01-09T05:38:19.646Z,8.67
2024-01-09T05:42:23.119Z,8.33
2024-01-09T05:46:27.985Z,9.60
2024-01-09T05:50:31.036Z,9.40
2024-01-09T05:54:34.577Z,10.00
2024-01-09T05:58:37.775Z,9.07
2024-01-09T06:02:42.540Z,9.50
2024-01-09T06:06:46.015Z,9.50
2024-01-09T06:10:49.467Z,10.07
2024-01-09T06:14:52.695Z,9.77
2024-01-09T06:18:57.543Z,10.23
2024-01-09T06:23:00.672Z,9.73
2024-01-09T06:27:04.093Z,10.37
2024-01-09T06:31:07.233Z,10.20
2024-01-09T06:35:12.598Z,9.93
2024-01-09T06:39:15.636Z,10.03
2024-01-09T06:43:19.126Z,9.90
2024-01-09T06:47:22.339Z,10.47
2024-01-09T06:51:27.840Z,9.97
2024-01-09T06:55:31.525Z,10.70
2024-01-09T06:59:35.607Z,9.77
2024-01-09T07:03:38.764Z,9.10
2024-01-09T07:07:49.808Z,10.13
2024-01-09T07:11:54.763Z,9.90
2024-01-09T07:15:58.956Z,9.70
2024-01-09T07:20:02.177Z,10.20
2024-01-09T07:24:07.587Z,11.03
2024-01-09T07:28:10.694Z,9.77
2024-01-09T07:32:14.033Z,9.83
2024-01-09T07:36:17.098Z,10.10
2024-01-09T07:40:23.270Z,10.33
2024-01-09T07:44:26.465Z,10.97
2024-01-09T07:48:30.006Z,10.73
2024-01-09T07:52:33.205Z,10.13
2024-01-09T07:56:38.715Z,9.87
2024-01-09T08:00:41.818Z,10.60
2024-01-09T08:04:44.894Z,10.20
2024-01-09T08:08:50.998Z,10.73
2024-01-09T08:12:55.485Z,10.13
2024-01-09T08:16:59.841Z,10.57
2024-01-09T08:21:03.515Z,10.57
2024-01-09T08:25:07.318Z,11.57
2024-01-09T08:29:11.602Z,10.13
2024-01-09T08:33:14.783Z,11.40
2024-01-09T08:37:18.078Z,10.83
2024-01-09T08:41:22.243Z,11.63
2024-01-09T08:45:27.060Z,10.70
2024-01-09T08:49:30.123Z,10.90
2024-01-09T08:53:33.486Z,10.47
2024-01-09T08:57:36.897Z,10.67
2024-01-09T09:01:41.682Z,11.10
2024-01-09T09:05:44.710Z,11.10
2024-01-09T09:09:48.185Z,10.13
2024-01-09T09:13:51.253Z,10.23
2024-01-09T09:17:56.588Z,10.37
2024-01-09T09:22:02.399Z,11.30
2024-01-09T09:26:06.065Z,10.70
2024-01-09T09:30:11.456Z,10.43
2024-01-09T09:34:16.675Z,10.53
2024-01-09T09:38:19.915Z,10.63
2024-01-09T09:42:24.240Z,10.23
2024-01-09T09:46:28.585Z,10.20
2024-01-09T09:50:35.670Z,9.90
2024-01-09T09:54:41.426Z,9.53
2024-01-09T09:58:45.215Z,10.03
2024-01-09T10:02:50.540Z,10.17
2024-01-09T10:06:57.799Z,9.97
2024-01-09T10:11:01.263Z,10.63
2024-01-09T10:15:08.551Z,10.33
2024-01-09T10:19:11.841Z,11.20
2024-01-09T10:23:16.852Z,11.20
2024-01-09T10:27:22.242Z,10.20
2024-01-09T10:31:26.329Z,10.67
2024-01-09T10:35:29.338Z,10.10
2024-01-09T10:39:34.057Z,10.37
2024-01-09T10:43:37.831Z,10.43
2024-01-09T10:47:41.857Z,11.27
2024-01-09T10:51:45.122Z,10.83
2024-01-09T10:55:51.976Z,10.13
2024-01-09T10:59:58.615Z,10.87
2024-01-09T11:04:02.451Z,10.20
2024-01-09T11:08:14.922Z,9.70
2024-01-09T11:12:22.693Z,10.80
2024-01-09T11:16:27.485Z,10.93
2024-01-09T11:20:31.208Z,10.70
2024-01-09T11:24:34.975Z,11.30
2024-01-09T11:28:41.276Z,10.70
2024-01-09T11:32:44.406Z,10.63
2024-01-09T11:36:47.853Z,10.53
2024-01-09T11:40:50.888Z,10.97
2024-01-09T11:44:55.548Z,10.63
2024-01-09T11:48:58.944Z,10.63
2024-01-09T11:53:03.673Z,10.70
2024-01-09T11:57:07.216Z,10.83
2024-01-09T12:01:12.426Z,10.30
2024-01-09T12:05:15.650Z,10.63
2024-01-09T12:09:19.744Z,10.27
2024-01-09T12:13:24.204Z,10.67
2024-01-09T12:17:35.163Z,10.33
2024-01-09T12:21:38.244Z,11.43
2024-01-09T12:25:41.940Z,10.10
2024-01-09T12:29:45.778Z,10.47
2024-01-09T12:33:50.671Z,11.07
2024-01-09T12:37:54.208Z,10.90
2024-01-09T12:42:07.720Z,10.50
2024-01-09T12:46:10.728Z,9.57
2024-01-09T12:50:29.325Z,9.23
2024-01-09T12:54:32.386Z,10.07
2024-01-09T12:58:37.158Z,9.23
2024-01-09T13:02:40.703Z,10.60
2024-01-09T13:06:45.454Z,10.53
2024-01-09T13:10:48.426Z,10.97
2024-01-09T13:14:51.880Z,9.87
2024-01-09T13:18:55.158Z,10.07
2024-01-09T13:27:06.582Z,10.00
2024-01-09T13:31:11.812Z,10.07
2024-01-09T13:35:16.441Z,9.80
2024-01-09T13:39:23.094Z,10.43
2024-01-09T13:43:26.260Z,9.90
2024-01-09T13:47:29.994Z,10.50
2024-01-09T13:55:40.281Z,10.50
2024-01-09T13:59:43.345Z,10.53
2024-01-09T14:03:47.657Z,10.27
2024-01-09T14:07:50.728Z,9.97
2024-01-09T14:11:55.309Z,10.27
2024-01-09T14:15:58.933Z,10.43
2024-01-09T14:20:02.398Z,9.70
2024-01-09T14:24:05.817Z,9.90
2024-01-09T14:28:10.521Z,10.10
2024-01-09T14:32:13.661Z,10.70
2024-01-09T14:36:17.035Z,10.90
2024-01-09T14:40:20.183Z,10.47
2024-01-09T14:44:24.841Z,10.30
2024-01-09T14:48:28.005Z,9.33
2024-01-09T14:52:31.398Z,10.83
2024-01-09T14:56:34.474Z,11.00
2024-01-09T15:00:39.232Z,11.30
2024-01-09T15:04:44.040Z,9.80
2024-01-09T15:08:47.248Z,10.40
2024-01-09T15:12:51.110Z,10.83
2024-01-09T15:16:55.470Z,10.43
2024-01-09T15:20:58.450Z,10.13
2024-01-09T15:25:01.693Z,10.90
2024-01-09T15:29:04.661Z,10.90
2024-01-09T15:33:11.489Z,11.17
2024-01-09T15:37:14.584Z,11.33
2024-01-09T15:41:18.145Z,11.23
2024-01-09T15:45:21.887Z,11.07
2024-01-09T15:49:26.631Z,12.07
2024-01-09T15:53:29.605Z,11.17
2024-01-09T15:57:32.905Z,11.27
2024-01-09T16:01:38.745Z,10.43
2024-01-09T16:05:45.067Z,10.57
2024-01-09T16:09:48.041Z,11.77
2024-01-09T16:13:51.560Z,10.67
2024-01-09T16:17:54.825Z,10.73
2024-01-09T16:21:59.492Z,11.07
2024-01-09T16:26:02.588Z,10.93
2024-01-09T16:30:07.958Z,11.67
2024-01-09T16:34:11.591Z,12.63
2024-01-09T16:38:17.579Z,12.63
2024-01-09T16:42:20.642Z,11.80
2024-01-09T16:46:24.081Z,11.57
2024-01-09T16:50:27.057Z,11.20
2024-01-09T16:54:32.006Z,12.07
2024-01-09T16:58:35.103Z,11.93
2024-01-09T17:02:38.130Z,12.77
2024-01-09T17:06:41.497Z,11.43
2024-01-09T17:10:47.027Z,12.67
2024-01-09T17:14:49.977Z,11.63
2024-01-09T17:18:53.361Z,13.07
2024-01-09T17:22:56.414Z,11.57
2024-01-09T17:27:01.145Z,11.97
2024-01-09T17:31:04.830Z,11.70
2024-01-09T17:35:08.538Z,13.00
2024-01-09T17:39:11.701Z,12.13
2024-01-09T17:43:16.633Z,12.23
2024-01-09T17:47:19.624Z,12.60
2024-01-09T17:51:22.944Z,12.60
2024-01-09T17:55:25.861Z,13.23
2024-01-09T17:59:30.784Z,13.37
2024-01-09T18:03:34.282Z,12.80
2024-01-09T18:07:37.620Z,12.90
2024-01-09T18:11:40.513Z,12.27
2024-01-09T18:15:45.132Z,14.33
2024-01-09T18:19:48.103Z,12.60
2024-01-09T18:23:51.455Z,13.47
2024-01-09T18:27:54.755Z,13.20
2024-01-09T18:31:59.092Z,12.70
2024-01-09T18:36:02.883Z,13.20
2024-01-09T18:40:10.154Z,13.63
2024-01-09T18:44:13.313Z,13.63
2024-01-09T18:48:18.342Z,12.87
2024-01-09T18:52:22.007Z,12.67
2024-01-09T18:56:25.472Z,13.63
2024-01-09T19:00:28.909Z,13.40
2024-01-09T19:04:39.313Z,13.50
2024-01-09T19:08:43.622Z,13.87
2024-01-09T19:12:46.520Z,14.37
2024-01-09T19:16:49.610Z,14.83
2024-01-09T19:20:54.264Z,15.33
2024-01-09T19:24:57.184Z,14.90
2024-01-09T19:29:01.074Z,15.53
2024-01-09T19:33:06.108Z,14.67
2024-01-09T19:37:11.197Z,13.27
2024-01-09T19:41:16.667Z,13.97
2024-01-09T19:45:20.033Z,14.13
2024-01-09T19:49:23.647Z,14.87
2024-01-09T19:53:28.362Z,15.20
2024-01-09T19:57:32.539Z,15.33
2024-01-09T20:01:36.382Z,14.90
2024-01-09T20:05:39.699Z,14.17
2024-01-09T20:09:44.800Z,14.40
2024-01-09T20:13:47.932Z,15.63
2024-01-09T20:17:50.872Z,15.67
2024-01-09T20:21:54.212Z,14.83
2024-01-09T20:25:59.096Z,15.13
2024-01-09T20:30:02.143Z,15.27
2024-01-09T20:34:06.259Z,15.47
2024-01-09T20:38:09.411Z,15.20
2024-01-09T20:42:14.729Z,14.43
2024-01-09T20:46:17.636Z,15.57
2024-01-09T20:50:20.950Z,15.27
2024-01-09T20:54:25.310Z,14.40
2024-01-09T20:58:30.179Z,15.77
2024-01-09T21:02:33.310Z,14.10
2024-01-09T21:06:36.771Z,14.53
2024-01-09T21:10:42.484Z,17.27
2024-01-09T21:14:46.797Z,16.13
2024-01-09T21:18:50.085Z,16.13
2024-01-09T21:22:53.633Z,15.90
2024-01-09T21:26:57.272Z,16.57
2024-01-09T21:31:02.203Z,15.87
2024-01-09T21:35:06.959Z,16.37
2024-01-09T21:39:10.459Z,14.83
2024-01-09T21:43:13.575Z,16.30
2024-01-09T21:47:18.169Z,16.57
2024-01-09T21:51:21.133Z,16.03
2024-01-09T21:55:24.416Z,16.10
2024-01-09T21:59:27.362Z,14.97
2024-01-09T22:03:32.092Z,15.83
2024-01-09T22:07:35.036Z,16.03
2024-01-09T22:11:42.598Z,15.60
2024-01-09T22:15:47.945Z,16.00
2024-01-09T22:19:52.602Z,16.23
2024-01-09T22:23:55.832Z,16.00
2024-01-09T22:27:59.234Z,15.07
2024-01-09T22:32:02.186Z,15.77
2024-01-09T22:36:07.865Z,15.43
2024-01-09T22:40:11.396Z,17.93
2024-01-09T22:44:14.486Z,15.73
2024-01-09T22:48:17.477Z,16.23
2024-01-09T22:52:22.339Z,16.67
2024-01-09T22:56:27.014Z,16.23
2024-01-09T23:00:32.287Z,16.27
2024-01-09T23:04:35.439Z,17.73
2024-01-09T23:08:40.146Z,17.87
2024-01-09T23:12:43.554Z,16.67
2024-01-09T23:16:46.829Z,17.17
2024-01-09T23:20:49.842Z,17.73
2024-01-09T23:24:54.972Z,18.03
2024-01-09T23:28:59.060Z,18.37
2024-01-09T23:33:02.677Z,18.53
2024-01-09T23:37:06.030Z,17.97
2024-01-09T23:41:10.758Z,18.10
2024-01-09T23:45:14.068Z,17.10
2024-01-09T23:49:17.947Z,18.03
2024-01-09T23:53:20.945Z,17.27
2024-01-09T23:57:25.824Z,17.13
